Terminal Aerodrome Forecast
Issued by NWS Amarillo, TX

Home | Current Version | Previous Version | Text Only | Print | Product List | Glossary On
Versions: 1 2 3 4 5 6 7 8 9 10 11 12 13 14 15 16 17 18 19 20
000
FTUS44 KAMA 301900 CCA
TAFAMA
TAF COR
KAMA 301950Z 3018/3118 04012KT P6SM BKN250
     FM310300 11012KT P6SM TSRA OVC035CB
     FM310700 11012KT P6SM OVC050 PROB30 3107/3111 TSRA BKN035CB
     FM311100 31006KT P6SM SCT035 BKN100=

USA.gov is the U.S. government's official web portal to all federal, state and local government web resources and services.